createdAt,value
2023-03-03T00:01:17.181Z,2.70
2023-03-03T00:03:44.124Z,2.70
2023-03-03T00:06:13.164Z,2.70
2023-03-03T00:08:40.795Z,2.70
2023-03-03T00:11:07.836Z,2.80
2023-03-03T00:13:44.009Z,2.80
2023-03-03T00:16:24.391Z,2.80
2023-03-03T00:18:52.024Z,2.80
2023-03-03T00:21:46.157Z,2.80
2023-03-03T00:24:21.887Z,2.80
2023-03-03T00:27:02.245Z,2.80
2023-03-03T00:29:45.783Z,2.70
2023-03-03T00:32:12.547Z,2.70
2023-03-03T00:34:39.360Z,2.70
2023-03-03T00:37:23.617Z,2.70
2023-03-03T00:39:50.410Z,2.70
2023-03-03T00:42:18.790Z,2.60
2023-03-03T00:44:59.295Z,2.60
2023-03-03T00:47:39.119Z,2.60
2023-03-03T00:50:05.843Z,2.60
2023-03-03T00:52:38.576Z,2.60
2023-03-03T00:55:06.813Z,2.50
2023-03-03T00:57:33.832Z,2.50
2023-03-03T01:00:01.127Z,2.40
2023-03-03T01:02:29.528Z,2.40
2023-03-03T01:04:56.423Z,2.30
2023-03-03T01:07:23.728Z,2.30
2023-03-03T01:09:50.513Z,2.20
2023-03-03T01:12:17.400Z,2.20
2023-03-03T01:14:45.342Z,2.10
2023-03-03T01:17:12.753Z,2.00
2023-03-03T01:19:39.738Z,2.00
2023-03-03T01:22:06.532Z,1.90
2023-03-03T01:24:33.503Z,1.90
2023-03-03T01:27:00.417Z,1.80
2023-03-03T01:29:27.320Z,1.80
2023-03-03T01:31:54.127Z,1.70
2023-03-03T01:34:21.964Z,1.70
2023-03-03T01:36:48.834Z,1.60
2023-03-03T01:39:15.544Z,1.60
2023-03-03T01:41:42.271Z,1.60
2023-03-03T01:44:15.539Z,1.50
2023-03-03T01:46:53.740Z,1.50
2023-03-03T01:49:30.532Z,1.50
2023-03-03T01:52:01.180Z,1.40
2023-03-03T01:54:38.472Z,1.40
2023-03-03T01:57:11.308Z,1.40
2023-03-03T01:59:40.867Z,1.30
2023-03-03T02:02:08.635Z,1.30
2023-03-03T02:04:35.968Z,1.30
2023-03-03T02:07:09.907Z,1.20
2023-03-03T02:09:58.774Z,1.20
2023-03-03T02:12:34.307Z,1.20
2023-03-03T02:15:01.062Z,1.20
2023-03-03T02:17:27.860Z,1.10
2023-03-03T02:20:01.504Z,1.10
2023-03-03T02:22:55.409Z,1.10
2023-03-03T02:25:52.463Z,1.10
2023-03-03T02:28:19.469Z,1.00
2023-03-03T02:30:48.788Z,1.00
2023-03-03T02:33:15.790Z,1.00
2023-03-03T02:35:43.006Z,1.00
2023-03-03T02:38:29.526Z,0.90
2023-03-03T02:41:03.287Z,0.90
2023-03-03T02:43:36.808Z,0.90
2023-03-03T02:46:03.799Z,0.90
2023-03-03T02:48:30.646Z,0.90
2023-03-03T02:50:58.536Z,0.80
2023-03-03T02:53:25.263Z,0.80
2023-03-03T02:55:53.339Z,0.80
2023-03-03T02:58:20.157Z,0.80
2023-03-03T03:00:47.707Z,0.80
2023-03-03T03:03:18.127Z,0.80
2023-03-03T03:05:45.308Z,0.80
2023-03-03T03:08:12.230Z,0.90
2023-03-03T03:10:39.448Z,0.90
2023-03-03T03:13:06.593Z,1.00
2023-03-03T03:15:35.877Z,1.00
2023-03-03T03:18:04.259Z,1.10
2023-03-03T03:20:31.824Z,1.10
2023-03-03T03:22:58.665Z,1.10
2023-03-03T03:25:25.641Z,1.20
2023-03-03T03:27:52.416Z,1.20
2023-03-03T03:30:20.767Z,1.20
2023-03-03T03:32:48.220Z,1.30
2023-03-03T03:35:17.233Z,1.30
2023-03-03T03:37:44.885Z,1.30
2023-03-03T03:40:12.151Z,1.30
2023-03-03T03:42:39.579Z,1.40
2023-03-03T03:45:07.133Z,1.40
2023-03-03T03:47:34.036Z,1.40
2023-03-03T03:50:00.802Z,1.50
2023-03-03T03:52:28.441Z,1.50
2023-03-03T03:54:55.163Z,1.50
2023-03-03T03:57:22.143Z,1.50
2023-03-03T03:59:50.265Z,1.50
2023-03-03T04:02:17.596Z,1.60
2023-03-03T04:04:44.700Z,1.60
2023-03-03T04:07:12.904Z,1.70
2023-03-03T04:09:39.925Z,1.60
2023-03-03T04:12:07.384Z,1.70
2023-03-03T04:14:35.073Z,1.70
2023-03-03T04:17:01.905Z,1.70
2023-03-03T04:19:28.646Z,1.70
2023-03-03T04:21:55.824Z,1.70
2023-03-03T04:24:22.777Z,1.80
2023-03-03T04:26:51.292Z,1.80
2023-03-03T04:29:18.296Z,1.80
2023-03-03T04:31:45.091Z,1.80
2023-03-03T04:34:12.123Z,1.80
2023-03-03T04:36:39.343Z,1.80
2023-03-03T04:39:06.504Z,1.90
2023-03-03T04:41:33.277Z,1.90
2023-03-03T04:44:00.082Z,1.90
2023-03-03T04:46:27.060Z,1.90
2023-03-03T04:48:53.895Z,1.90
2023-03-03T04:51:20.785Z,1.90
2023-03-03T04:53:47.570Z,1.90
2023-03-03T04:56:14.868Z,2.00
2023-03-03T04:58:41.912Z,2.00
2023-03-03T05:01:13.043Z,2.00
2023-03-03T05:03:40.307Z,2.00
2023-03-03T05:06:07.772Z,2.00
2023-03-03T05:08:34.467Z,2.00
2023-03-03T05:11:02.295Z,2.10
2023-03-03T05:13:29.360Z,2.00
2023-03-03T05:15:56.519Z,2.00
2023-03-03T05:18:24.998Z,2.00
2023-03-03T05:20:52.798Z,2.10
2023-03-03T05:23:20.147Z,2.10
2023-03-03T05:25:50.297Z,2.10
2023-03-03T05:28:17.909Z,2.10
2023-03-03T05:30:44.748Z,2.10
2023-03-03T05:33:14.621Z,2.20
2023-03-03T05:35:41.474Z,2.10
2023-03-03T05:38:08.316Z,2.10
2023-03-03T05:40:35.125Z,2.10
2023-03-03T05:43:01.986Z,2.20
2023-03-03T05:45:28.793Z,2.20
2023-03-03T05:47:55.501Z,2.20
2023-03-03T05:50:23.537Z,2.20
2023-03-03T05:52:51.915Z,2.20
2023-03-03T05:55:19.696Z,2.20
2023-03-03T05:57:46.489Z,2.20
2023-03-03T06:00:14.758Z,2.20
2023-03-03T06:02:42.099Z,2.20
2023-03-03T06:05:09.593Z,2.30
2023-03-03T06:07:36.362Z,2.30
2023-03-03T06:10:04.189Z,2.30
2023-03-03T06:12:33.810Z,2.30
2023-03-03T06:15:00.546Z,2.30
2023-03-03T06:17:27.260Z,2.30
2023-03-03T06:19:54.074Z,2.30
2023-03-03T06:22:20.845Z,2.30
2023-03-03T06:24:47.566Z,2.30
2023-03-03T06:27:14.333Z,2.30
2023-03-03T06:29:41.088Z,2.30
2023-03-03T06:32:07.915Z,2.40
2023-03-03T06:34:34.871Z,2.40
2023-03-03T06:37:01.784Z,2.40
2023-03-03T06:39:28.605Z,2.40
2023-03-03T06:41:55.479Z,2.40
2023-03-03T06:44:22.347Z,2.50
2023-03-03T06:46:49.108Z,2.50
2023-03-03T06:49:15.846Z,2.50
2023-03-03T06:51:43.889Z,2.50
2023-03-03T06:54:16.860Z,2.50
2023-03-03T06:56:45.562Z,2.60
2023-03-03T06:59:20.318Z,2.60
2023-03-03T07:01:49.241Z,2.60
2023-03-03T07:04:19.335Z,2.60
2023-03-03T07:06:47.454Z,2.70
2023-03-03T07:09:29.659Z,2.70
2023-03-03T07:12:02.319Z,2.70
2023-03-03T07:14:30.510Z,2.70
2023-03-03T07:17:00.523Z,2.80
2023-03-03T07:19:37.126Z,2.80
2023-03-03T07:22:17.123Z,2.80
2023-03-03T07:24:46.508Z,2.80
2023-03-03T07:27:22.750Z,2.80
2023-03-03T07:29:51.619Z,2.90
2023-03-03T07:32:45.020Z,2.90
2023-03-03T07:35:26.963Z,2.90
2023-03-03T07:37:53.919Z,3.00
2023-03-03T07:40:37.264Z,3.00
2023-03-03T07:43:23.121Z,3.00
2023-03-03T07:45:51.221Z,3.00
2023-03-03T07:48:30.378Z,3.00
2023-03-03T07:51:04.395Z,3.10
2023-03-03T07:53:34.945Z,3.10
2023-03-03T07:56:01.936Z,3.10
2023-03-03T08:01:40.925Z,3.20
2023-03-03T08:04:21.073Z,3.20
2023-03-03T08:06:53.375Z,3.30
2023-03-03T08:09:20.155Z,3.40
2023-03-03T08:11:52.067Z,3.40
2023-03-03T08:14:27.439Z,3.50
2023-03-03T08:16:55.725Z,3.50
2023-03-03T08:19:22.733Z,3.60
2023-03-03T08:21:49.436Z,3.60
2023-03-03T08:24:16.214Z,3.60
2023-03-03T08:26:43.881Z,3.70
2023-03-03T08:29:11.966Z,3.70
2023-03-03T08:31:41.780Z,3.80
2023-03-03T08:34:09.246Z,3.90
2023-03-03T08:36:36.210Z,3.90
2023-03-03T08:39:09.486Z,3.90
2023-03-03T08:41:36.450Z,4.00
2023-03-03T08:44:03.314Z,4.00
2023-03-03T08:46:30.165Z,4.00
2023-03-03T08:48:57.027Z,4.10
2023-03-03T08:51:25.223Z,4.10
2023-03-03T08:53:52.207Z,4.10
2023-03-03T08:56:18.952Z,4.10
2023-03-03T08:59:01.211Z,4.10
2023-03-03T09:01:28.899Z,4.10
2023-03-03T09:03:55.671Z,4.10
2023-03-03T09:06:22.479Z,4.00
2023-03-03T09:08:50.395Z,4.00
2023-03-03T09:11:24.669Z,4.00
2023-03-03T09:13:53.365Z,4.10
2023-03-03T09:16:22.399Z,4.10
2023-03-03T09:18:50.744Z,4.00
2023-03-03T09:21:32.794Z,4.10
2023-03-03T09:24:00.705Z,4.10
2023-03-03T09:26:30.377Z,4.10
2023-03-03T09:29:15.266Z,4.10
2023-03-03T09:31:52.649Z,4.10
2023-03-03T09:34:37.402Z,4.10
2023-03-03T09:37:23.675Z,4.10
2023-03-03T09:39:53.328Z,4.20
2023-03-03T09:42:48.117Z,4.20
2023-03-03T09:45:52.386Z,4.20
2023-03-03T09:48:30.527Z,4.30
2023-03-03T09:51:16.275Z,4.30
2023-03-03T09:54:13.654Z,4.40
2023-03-03T09:56:49.159Z,4.40
2023-03-03T09:59:43.886Z,4.50
2023-03-03T10:02:31.626Z,4.50
2023-03-03T10:05:35.773Z,4.60
2023-03-03T10:08:20.596Z,4.60
2023-03-03T10:11:13.874Z,4.70
2023-03-03T10:13:59.150Z,4.80
2023-03-03T10:16:49.020Z,4.90
2023-03-03T10:19:46.435Z,4.90
2023-03-03T10:22:45.380Z,5.00
2023-03-03T10:25:50.175Z,5.10
2023-03-03T10:28:51.219Z,5.30
2023-03-03T10:31:36.590Z,5.40
2023-03-03T10:34:19.706Z,5.50
2023-03-03T10:37:15.456Z,5.60
2023-03-03T10:40:00.199Z,5.70
2023-03-03T10:43:01.001Z,5.80
2023-03-03T10:45:39.511Z,5.90
2023-03-03T10:48:34.926Z,6.00
2023-03-03T10:51:13.352Z,6.10
2023-03-03T10:54:06.130Z,6.10
2023-03-03T10:56:53.203Z,6.20
2023-03-03T10:59:45.219Z,6.20
2023-03-03T11:02:25.421Z,6.30
2023-03-03T11:05:00.208Z,6.30
2023-03-03T11:07:35.583Z,6.40
2023-03-03T11:10:20.265Z,6.40
2023-03-03T11:13:10.814Z,6.50
2023-03-03T11:16:04.723Z,6.50
2023-03-03T11:18:54.008Z,6.60
2023-03-03T11:21:49.361Z,6.60
2023-03-03T11:24:41.178Z,6.70
2023-03-03T11:27:16.408Z,6.80
2023-03-03T11:30:08.210Z,6.80
2023-03-03T11:33:01.308Z,6.90
2023-03-03T11:35:57.908Z,7.10
2023-03-03T11:38:32.789Z,7.20
2023-03-03T11:41:07.065Z,7.40
2023-03-03T11:43:49.196Z,7.50
2023-03-03T11:46:25.531Z,7.60
2023-03-03T11:49:11.901Z,7.80
2023-03-03T11:51:53.970Z,7.80
2023-03-03T11:54:27.503Z,7.80
2023-03-03T11:57:19.227Z,7.90
2023-03-03T12:00:14.490Z,7.90
2023-03-03T12:02:56.640Z,7.80
2023-03-03T12:05:38.775Z,7.90
2023-03-03T12:08:14.125Z,7.80
2023-03-03T12:10:47.204Z,7.90
2023-03-03T12:13:23.248Z,7.90
2023-03-03T12:16:01.569Z,7.90
2023-03-03T12:18:32.452Z,8.00
2023-03-03T12:21:21.781Z,7.90
2023-03-03T12:24:10.133Z,7.90
2023-03-03T12:27:07.746Z,8.00
2023-03-03T12:29:57.386Z,7.90
2023-03-03T12:32:50.628Z,7.90
2023-03-03T12:35:41.306Z,7.80
2023-03-03T12:38:44.653Z,7.80
2023-03-03T12:41:43.848Z,7.90
2023-03-03T12:44:33.555Z,7.90
2023-03-03T12:47:04.421Z,7.80
2023-03-03T12:49:52.100Z,7.70
2023-03-03T12:52:50.790Z,7.60
2023-03-03T12:55:40.128Z,7.50
2023-03-03T12:58:30.095Z,7.50
2023-03-03T13:01:02.780Z,7.50
2023-03-03T13:03:55.041Z,7.50
2023-03-03T13:06:32.225Z,7.50
2023-03-03T13:09:28.844Z,7.50
2023-03-03T13:12:22.989Z,7.50
2023-03-03T13:14:56.966Z,7.60
2023-03-03T13:17:38.935Z,7.60
2023-03-03T13:20:22.716Z,7.60
2023-03-03T13:23:09.396Z,7.70
2023-03-03T13:25:39.347Z,7.70
2023-03-03T13:28:26.211Z,7.70
2023-03-03T13:31:18.904Z,7.70
2023-03-03T13:33:56.177Z,7.70
2023-03-03T13:36:38.986Z,7.80
2023-03-03T13:39:18.042Z,7.80
2023-03-03T13:42:06.055Z,7.80
2023-03-03T13:44:42.769Z,7.90
2023-03-03T13:47:36.206Z,7.90
2023-03-03T13:50:18.404Z,7.90
2023-03-03T13:53:05.693Z,7.90
2023-03-03T13:55:58.538Z,7.90
2023-03-03T13:58:36.978Z,8.00
2023-03-03T14:01:17.720Z,8.00
2023-03-03T14:04:02.276Z,8.10
2023-03-03T14:06:30.361Z,8.10
2023-03-03T14:09:40.287Z,8.00
2023-03-03T14:12:29.557Z,8.00
2023-03-03T14:15:04.364Z,8.00
2023-03-03T14:18:20.205Z,8.00
2023-03-03T14:20:53.022Z,8.00
2023-03-03T14:23:26.940Z,8.10
2023-03-03T14:25:56.620Z,8.10
2023-03-03T14:28:25.909Z,8.10
2023-03-03T14:30:57.874Z,8.10
2023-03-03T14:33:31.571Z,8.10
2023-03-03T14:35:58.440Z,8.10
2023-03-03T14:38:38.491Z,8.10
2023-03-03T14:41:11.651Z,8.10
2023-03-03T14:43:46.562Z,8.20
2023-03-03T14:46:33.899Z,8.20
2023-03-03T14:49:04.182Z,8.20
2023-03-03T14:51:47.757Z,8.20
2023-03-03T14:54:28.275Z,8.30
2023-03-03T14:57:02.120Z,8.30
2023-03-03T14:59:30.258Z,8.30
2023-03-03T15:02:01.502Z,8.30
2023-03-03T15:04:31.141Z,8.30
2023-03-03T15:06:59.084Z,8.30
2023-03-03T15:09:35.859Z,8.30
2023-03-03T15:12:19.686Z,8.30
2023-03-03T15:14:49.431Z,8.30
2023-03-03T15:17:36.671Z,8.40
2023-03-03T15:20:26.377Z,8.40
2023-03-03T15:23:21.442Z,8.50
2023-03-03T15:26:19.729Z,8.60
2023-03-03T15:29:13.146Z,8.60
2023-03-03T15:31:58.925Z,8.60
2023-03-03T15:34:47.282Z,8.70
2023-03-03T15:37:39.353Z,8.70
2023-03-03T15:40:27.041Z,8.70
2023-03-03T15:43:25.011Z,8.70
2023-03-03T15:45:58.230Z,8.70
2023-03-03T15:48:51.248Z,8.80
2023-03-03T15:52:03.488Z,8.90
2023-03-03T15:54:36.527Z,8.90
2023-03-03T15:57:30.712Z,8.90
2023-03-03T16:00:25.433Z,8.90
2023-03-03T16:02:58.954Z,8.80
2023-03-03T16:05:31.678Z,8.80
2023-03-03T16:08:37.939Z,8.70
2023-03-03T16:11:08.620Z,8.70
2023-03-03T16:14:07.668Z,8.60
2023-03-03T16:17:08.613Z,8.50
2023-03-03T16:19:53.630Z,8.50
2023-03-03T16:22:40.914Z,8.40
2023-03-03T16:25:36.610Z,8.40
2023-03-03T16:28:34.798Z,8.40
2023-03-03T16:31:11.068Z,8.30
2023-03-03T16:33:52.186Z,8.20
2023-03-03T16:36:28.791Z,8.20
2023-03-03T16:39:02.081Z,8.20
2023-03-03T16:41:57.049Z,8.00
2023-03-03T16:44:53.975Z,8.00
2023-03-03T16:47:23.445Z,8.00
2023-03-03T16:50:16.550Z,7.90
2023-03-03T16:52:56.384Z,7.80
2023-03-03T16:55:32.025Z,7.80
2023-03-03T16:58:07.701Z,7.80
2023-03-03T17:00:58.606Z,7.70
2023-03-03T17:03:56.335Z,7.70
2023-03-03T17:06:31.604Z,7.60
2023-03-03T17:09:10.901Z,7.50
2023-03-03T17:12:08.548Z,7.40
2023-03-03T17:15:03.351Z,7.40
2023-03-03T17:17:43.544Z,7.30
2023-03-03T17:20:34.765Z,7.20
2023-03-03T17:23:20.226Z,7.20
2023-03-03T17:25:53.276Z,7.10
2023-03-03T17:28:38.720Z,7.00
2023-03-03T17:31:20.022Z,6.90
2023-03-03T17:34:19.688Z,6.80
2023-03-03T17:36:59.255Z,6.70
2023-03-03T17:39:59.434Z,6.70
2023-03-03T17:42:36.290Z,6.60
2023-03-03T17:45:15.142Z,6.50
2023-03-03T17:47:53.497Z,6.40
2023-03-03T17:50:35.272Z,6.40
2023-03-03T17:53:40.340Z,6.30
2023-03-03T17:56:16.036Z,6.20
2023-03-03T17:59:04.712Z,6.10
2023-03-03T18:02:30.384Z,6.00
2023-03-03T18:05:26.425Z,5.90
2023-03-03T18:08:20.756Z,5.80
2023-03-03T18:11:07.731Z,5.70
2023-03-03T18:13:43.393Z,5.70
2023-03-03T18:16:47.865Z,5.60
2023-03-03T18:19:25.741Z,5.50
2023-03-03T18:22:05.723Z,5.50
2023-03-03T18:24:55.895Z,5.50
2023-03-03T18:27:25.340Z,5.40
2023-03-03T18:30:18.342Z,5.30
2023-03-03T18:32:56.846Z,5.30
2023-03-03T18:35:25.715Z,5.20
2023-03-03T18:37:52.773Z,5.20
2023-03-03T18:40:32.622Z,5.10
2023-03-03T18:42:59.907Z,5.10
2023-03-03T18:45:29.162Z,5.00
2023-03-03T18:48:04.881Z,4.90
2023-03-03T18:50:34.201Z,4.90
2023-03-03T18:53:18.338Z,4.90
2023-03-03T18:55:51.237Z,4.80
2023-03-03T18:58:18.019Z,4.80
2023-03-03T19:00:59.713Z,4.70
2023-03-03T19:03:46.757Z,4.70
2023-03-03T19:06:30.061Z,4.60
2023-03-03T19:09:00.585Z,4.60
2023-03-03T19:11:33.506Z,4.60
2023-03-03T19:14:12.603Z,4.50
2023-03-03T19:16:39.448Z,4.50
2023-03-03T19:19:17.697Z,4.40
2023-03-03T19:21:51.152Z,4.40
2023-03-03T19:24:33.808Z,4.40
2023-03-03T19:27:28.135Z,4.30
2023-03-03T19:30:07.085Z,4.30
2023-03-03T19:33:00.254Z,4.30
2023-03-03T19:35:54.629Z,4.20
2023-03-03T19:38:53.374Z,4.20
2023-03-03T19:41:25.897Z,4.10
2023-03-03T19:44:11.911Z,4.10
2023-03-03T19:47:23.550Z,4.10
2023-03-03T19:50:05.220Z,4.00
2023-03-03T19:52:49.086Z,4.00
2023-03-03T19:55:28.149Z,3.90
2023-03-03T19:58:20.860Z,3.90
2023-03-03T20:00:55.749Z,3.90
2023-03-03T20:03:52.830Z,3.90
2023-03-03T20:06:37.719Z,3.80
2023-03-03T20:09:04.470Z,3.80
2023-03-03T20:11:56.430Z,3.80
2023-03-03T20:14:37.995Z,3.70
2023-03-03T20:17:30.517Z,3.70
2023-03-03T20:20:03.632Z,3.70
2023-03-03T20:22:46.729Z,3.60
2023-03-03T20:25:32.816Z,3.60
2023-03-03T20:28:23.488Z,3.50
2023-03-03T20:31:05.526Z,3.50
2023-03-03T20:33:54.216Z,3.40
2023-03-03T20:36:32.921Z,3.40
2023-03-03T20:39:14.249Z,3.30
2023-03-03T20:41:40.966Z,3.40
2023-03-03T20:44:17.180Z,3.30
2023-03-03T20:47:15.279Z,3.30
2023-03-03T20:49:51.053Z,3.30
2023-03-03T20:52:42.606Z,3.30
2023-03-03T20:55:14.375Z,3.20
2023-03-03T20:58:09.057Z,3.20
2023-03-03T21:00:55.188Z,3.20
2023-03-03T21:03:35.580Z,3.10
2023-03-03T21:06:02.332Z,3.10
2023-03-03T21:08:46.808Z,3.10
2023-03-03T21:11:15.739Z,3.10
2023-03-03T21:13:47.979Z,3.00
2023-03-03T21:16:21.210Z,3.00
2023-03-03T21:19:03.186Z,3.00
2023-03-03T21:21:39.460Z,3.00
2023-03-03T21:24:07.591Z,3.00
2023-03-03T21:26:49.545Z,2.90
2023-03-03T21:29:19.299Z,2.90
2023-03-03T21:31:57.098Z,2.90
2023-03-03T21:34:32.917Z,2.90
2023-03-03T21:37:02.135Z,2.90
2023-03-03T21:39:38.185Z,2.90
2023-03-03T21:42:06.435Z,2.80
2023-03-03T21:44:44.663Z,2.80
2023-03-03T21:47:15.133Z,2.80
2023-03-03T21:49:43.972Z,2.80
2023-03-03T21:52:12.499Z,2.80
2023-03-03T21:54:39.568Z,2.70
2023-03-03T21:57:06.607Z,2.80
2023-03-03T21:59:33.448Z,2.70
2023-03-03T22:02:00.228Z,2.70
2023-03-03T22:04:27.155Z,2.70
2023-03-03T22:06:54.144Z,2.60
2023-03-03T22:09:21.029Z,2.60
2023-03-03T22:11:48.129Z,2.60
2023-03-03T22:14:15.195Z,2.60
2023-03-03T22:16:42.244Z,2.60
2023-03-03T22:19:09.522Z,2.50
2023-03-03T22:21:37.564Z,2.50
2023-03-03T22:24:05.357Z,2.50
2023-03-03T22:26:32.223Z,2.40
2023-03-03T22:28:59.028Z,2.40
2023-03-03T22:31:25.821Z,2.40
2023-03-03T22:33:52.580Z,2.30
2023-03-03T22:36:19.326Z,2.30
2023-03-03T22:38:47.489Z,2.30
2023-03-03T22:41:14.837Z,2.30
2023-03-03T22:43:42.085Z,2.20
2023-03-03T22:46:09.825Z,2.20
2023-03-03T22:48:38.120Z,2.20
2023-03-03T22:51:05.580Z,2.20
2023-03-03T22:53:32.891Z,2.20
2023-03-03T22:55:59.974Z,2.10
2023-03-03T22:58:26.701Z,2.10
2023-03-03T23:00:54.428Z,2.10
2023-03-03T23:03:22.479Z,2.10
2023-03-03T23:05:51.732Z,2.00
2023-03-03T23:08:19.387Z,2.00
2023-03-03T23:10:46.335Z,1.90
2023-03-03T23:13:13.726Z,1.90
2023-03-03T23:15:40.492Z,1.90
2023-03-03T23:18:07.509Z,1.90
2023-03-03T23:20:34.582Z,1.90
2023-03-03T23:23:01.433Z,1.90
2023-03-03T23:25:28.841Z,1.80
2023-03-03T23:27:56.643Z,1.80
2023-03-03T23:30:23.862Z,1.80
2023-03-03T23:32:50.908Z,1.80
2023-03-03T23:35:18.481Z,1.80
2023-03-03T23:37:46.061Z,1.80
2023-03-03T23:40:15.601Z,1.70
2023-03-03T23:42:42.443Z,1.70
2023-03-03T23:45:11.094Z,1.70
2023-03-03T23:47:37.968Z,1.70
2023-03-03T23:50:05.403Z,1.70
2023-03-03T23:52:32.359Z,1.70
2023-03-03T23:54:59.144Z,1.70
2023-03-03T23:57:25.896Z,1.60
2023-03-03T23:59:52.638Z,1.60
